Airfield :
LOGIN :

Register | Disclaimer

   EN    FR    IT 

 










Legend :    VFR   Marginal VFR   IFR   Intensive IFR   Very Intensive IFR
Visi :
Ceiling :
>= 8 km
>= 3000ft
5 to 8 km
1000 to 3000 ft
1500m to 5 km
500 to 1000 ft
800 to 1500m
200 to 500 ft
< 800m
< 200 ft
Symbols :   Thunderstorms  Fog  Heavy snow  Heavy precipitations  Wind > 20 kt
SIGMETs :     Misc.  Thunderstorms  Icing  Turbulence  Mountain Waves  Volcanic Ashes






- Airport Elevation : 1504 ft
- IATA code : PNA


LEPP - Noain Pamplona

CURRENT METAR :
  • 161330Z 13013KT 100V160 9999 FEW025 12/05 Q1001

EXPIRED METARs :
  • 161300Z 13015KT 090V150 9999 FEW025 12/05 Q1002
  • 161230Z 12017KT 100V160 9999 FEW025 12/04 Q1003
  • 161200Z 13016KT 100V170 9999 FEW025 12/04 Q1003
  • 161130Z 12017G29KT 9999 FEW025 12/04 Q1004
  • 161100Z 12019KT 9999 FEW030 12/04 Q1004

TAF TAF LEPP
Valid from the 16 at 09:00 until the 17 at 09:00 UTC


160800Z 1609/1709 14015KT 9999 FEW035 TX13/1615Z TN08/1704Z
TEMPO 1609/1702 14015G30KT
PROB40
TEMPO 1609/1624 14020G35KT
PROB30
TEMPO 1609/1612 14025G40KT



MET'MAP, your aeronautical weather chart ! - Copyright ORBIFLY December 2007 - Disclaimer

ORBIFLY MET'MAP TEAM :

Programming & Development : Alexandra Zaïnal
Concept & original design : Baudouin d'Aumeries
Assistance for programming : Marc-Olivier Méhu
Technical & hardware support : Manuel Goepfert

Contact : metmap@orbifly.com




SOURCES & CREDITS :

   NOAA